Time;durP1;ratioP1;P1;durP2;ratioP2;P2;SDS_P1;SDS_P2;PMS_P1;PMS_P2;Temp;Humidity;BMP_temperature;BMP_pressure;BME280_temperature;BME280_humidity;BME280_pressure;Samples;Min_cycle;Max_cycle;Signal;HPM_P1;HPM_P2
2023/09/28 00:02:03;;;;;;;4.97;2.00;;;21.10;99.90;;;;;;5031088;28;20201;-82
2023/09/28 00:04:32;;;;;;;5.22;1.83;;;21.10;99.90;;;;;;5030171;28;20224;-82
2023/09/28 00:07:03;;;;;;;5.53;2.17;;;21.20;99.90;;;;;;5031191;28;20205;-82
2023/09/28 00:09:32;;;;;;;5.95;2.28;;;21.20;99.90;;;;;;5031925;28;20197;-82
2023/09/28 00:12:04;;;;;;;4.90;1.95;;;21.30;99.90;;;;;;5030039;28;20205;-82
2023/09/28 00:14:33;;;;;;;6.60;1.95;;;21.30;99.90;;;;;;5030964;28;20683;-82
2023/09/28 00:17:08;;;;;;;5.30;2.45;;;21.30;99.90;;;;;;5031206;28;20219;-82
2023/09/28 00:19:37;;;;;;;6.43;1.90;;;21.30;99.90;;;;;;5030543;28;20201;-82
2023/09/28 00:22:08;;;;;;;5.45;1.90;;;21.40;99.90;;;;;;5030458;28;20218;-82
2023/09/28 00:24:37;;;;;;;4.68;1.88;;;21.50;99.90;;;;;;5048614;28;20274;-82
2023/09/28 00:27:08;;;;;;;3.05;1.50;;;21.60;99.90;;;;;;5050521;28;20731;-82
2023/09/28 00:29:39;;;;;;;4.85;1.95;;;21.50;99.90;;;;;;5032911;28;20233;-83
2023/09/28 00:32:12;;;;;;;3.10;1.45;;;21.60;99.90;;;;;;5030308;28;20194;-82
2023/09/28 00:34:41;;;;;;;3.70;1.50;;;21.70;99.90;;;;;;5030969;28;20197;-82
2023/09/28 00:37:12;;;;;;;4.10;1.50;;;21.60;99.90;;;;;;5030214;28;20287;-82
2023/09/28 00:39:41;;;;;;;2.92;1.40;;;21.70;99.90;;;;;;5030844;28;20288;-82
2023/09/28 00:42:12;;;;;;;3.80;1.30;;;21.80;99.90;;;;;;5030538;28;20276;-82
2023/09/28 00:44:41;;;;;;;4.13;1.33;;;21.80;99.90;;;;;;5029755;28;20201;-81
2023/09/28 00:47:14;;;;;;;4.35;1.60;;;21.80;99.90;;;;;;5025117;28;20197;-82
2023/09/28 00:49:44;;;;;;;3.10;1.40;;;21.80;99.90;;;;;;5034586;28;20212;-83
2023/09/28 00:52:17;;;;;;;5.25;1.65;;;21.70;99.90;;;;;;5034547;28;20207;-82
2023/09/28 00:54:49;;;;;;;4.20;1.27;;;21.90;99.90;;;;;;5028082;28;20225;-83
2023/09/28 00:57:20;;;;;;;4.22;1.50;;;21.90;99.90;;;;;;5030005;28;20750;-83
2023/09/28 00:59:49;;;;;;;3.25;1.55;;;22.00;99.90;;;;;;5033407;28;20193;-83
2023/09/28 01:02:22;;;;;;;6.47;1.80;;;22.00;99.90;;;;;;5036316;28;20301;-83
2023/09/28 01:04:52;;;;;;;3.67;1.30;;;22.00;99.90;;;;;;5053785;28;20192;-83
2023/09/28 01:07:30;;;;;;;3.50;1.40;;;22.10;99.90;;;;;;5039759;28;20284;-83
2023/09/28 01:09:59;;;;;;;5.80;1.65;;;22.10;99.90;;;;;;5032031;28;20201;-83
2023/09/28 01:12:31;;;;;;;5.65;1.42;;;22.20;99.90;;;;;;5033769;28;20243;-82
2023/09/28 01:15:01;;;;;;;5.80;1.70;;;22.30;99.90;;;;;;5034005;28;20284;-83
2023/09/28 01:17:33;;;;;;;3.67;1.30;;;22.40;99.90;;;;;;5032672;28;20216;-83
2023/09/28 01:20:05;;;;;;;5.22;1.63;;;22.30;99.90;;;;;;5045007;28;20203;-82
2023/09/28 01:22:38;;;;;;;3.22;1.42;;;22.30;99.90;;;;;;5050085;28;20192;-81
2023/09/28 01:25:08;;;;;;;3.80;1.48;;;22.30;99.90;;;;;;5032478;28;20665;-82
2023/09/28 01:27:39;;;;;;;3.90;1.40;;;22.40;99.90;;;;;;5019757;28;20249;-82
2023/09/28 01:30:11;;;;;;;5.15;1.08;;;22.50;99.90;;;;;;5028672;28;20197;-81
2023/09/28 01:32:42;;;;;;;3.75;1.42;;;22.60;99.90;;;;;;5027146;28;20236;-81
2023/09/28 01:35:11;;;;;;;3.28;1.30;;;22.50;99.90;;;;;;5026394;28;20197;-82
2023/09/28 01:37:58;;;;;;;4.32;1.45;;;22.50;99.90;;;;;;5050081;28;20224;-81
2023/09/28 01:40:27;;;;;;;4.43;1.25;;;22.50;99.90;;;;;;5013693;28;20206;-82
2023/09/28 01:42:58;;;;;;;4.28;1.35;;;22.40;99.90;;;;;;5013636;28;20209;-81
2023/09/28 01:45:27;;;;;;;5.93;1.60;;;22.40;99.90;;;;;;5013578;28;20201;-81
2023/09/28 01:47:58;;;;;;;2.17;1.38;;;22.40;99.90;;;;;;5016653;28;20243;-83
2023/09/28 01:50:27;;;;;;;3.78;1.30;;;22.40;99.90;;;;;;5031423;28;20703;-82
2023/09/28 01:53:00;;;;;;;2.67;1.20;;;22.40;99.90;;;;;;5033403;28;20197;-82
2023/09/28 01:55:29;;;;;;;4.57;1.60;;;22.30;99.90;;;;;;5030344;28;20209;-82
2023/09/28 01:58:00;;;;;;;2.53;1.35;;;22.40;99.90;;;;;;5032954;28;20235;-81
2023/09/28 02:00:29;;;;;;;5.93;1.27;;;22.40;99.90;;;;;;5030881;28;20205;-81
2023/09/28 02:03:00;;;;;;;3.42;1.25;;;22.40;99.90;;;;;;5033840;28;20208;-81
2023/09/28 02:05:32;;;;;;;3.08;1.33;;;22.30;99.90;;;;;;5035611;28;20665;-82
2023/09/28 02:08:05;;;;;;;3.40;1.38;;;22.30;99.90;;;;;;5029505;28;20259;-82
2023/09/28 02:10:35;;;;;;;2.97;1.45;;;22.20;99.90;;;;;;5026708;28;20232;-82
2023/09/28 02:13:06;;;;;;;4.22;1.40;;;22.10;99.90;;;;;;5032706;28;20229;-82
2023/09/28 02:15:36;;;;;;;4.22;1.33;;;22.10;99.90;;;;;;5022117;28;20676;-82
2023/09/28 02:18:07;;;;;;;3.85;1.58;;;22.00;99.90;;;;;;5033486;28;20217;-82
2023/09/28 02:20:37;;;;;;;3.15;1.52;;;22.00;99.90;;;;;;5033171;28;20197;-81
2023/09/28 02:23:10;;;;;;;4.55;1.65;;;21.90;99.90;;;;;;5033373;28;20193;-81
2023/09/28 02:25:40;;;;;;;5.15;1.55;;;21.90;99.90;;;;;;5032997;28;20216;-81
2023/09/28 02:28:10;;;;;;;5.47;1.60;;;21.90;99.90;;;;;;5033544;28;20221;-81
2023/09/28 02:30:41;;;;;;;5.20;1.60;;;21.80;99.90;;;;;;5032764;28;20208;-82
2023/09/28 02:33:10;;;;;;;4.50;1.40;;;21.80;99.90;;;;;;5033325;28;20228;-81
2023/09/28 02:35:41;;;;;;;2.65;1.33;;;21.80;99.90;;;;;;5033440;28;20201;-82
2023/09/28 02:38:12;;;;;;;4.03;1.55;;;21.70;99.90;;;;;;5033554;28;20308;-81
2023/09/28 02:40:43;;;;;;;4.57;1.50;;;21.70;99.90;;;;;;5018738;28;20281;-82
2023/09/28 02:43:12;;;;;;;2.83;1.20;;;21.70;99.90;;;;;;5013671;28;20277;-82
2023/09/28 02:45:43;;;;;;;4.40;1.55;;;21.60;99.90;;;;;;5025692;28;20194;-81
2023/09/28 02:48:16;;;;;;;3.90;1.40;;;21.70;99.90;;;;;;5035556;28;20197;-81
2023/09/28 02:50:48;;;;;;;4.60;1.60;;;21.70;99.90;;;;;;5031077;28;20233;-81
2023/09/28 02:53:19;;;;;;;3.83;1.50;;;21.70;99.90;;;;;;5015978;28;20200;-80
2023/09/28 02:55:50;;;;;;;6.78;1.73;;;21.70;99.90;;;;;;5020776;28;20203;-81
2023/09/28 02:58:22;;;;;;;2.47;1.23;;;21.70;99.90;;;;;;5028505;28;20220;-81
2023/09/28 03:00:52;;;;;;;4.30;1.50;;;21.80;99.90;;;;;;5022246;28;20202;-81
2023/09/28 03:03:22;;;;;;;6.22;1.52;;;21.80;99.90;;;;;;5031385;28;20212;-81
2023/09/28 03:05:54;;;;;;;3.17;1.50;;;21.80;99.90;;;;;;5032168;28;20204;-81
2023/09/28 03:08:25;;;;;;;4.13;1.75;;;21.80;99.90;;;;;;5030717;28;20205;-81
2023/09/28 03:10:56;;;;;;;3.38;1.40;;;21.70;99.90;;;;;;5029812;28;20683;-80
2023/09/28 03:13:25;;;;;;;3.67;1.65;;;21.80;99.90;;;;;;5021372;28;20225;-81
2023/09/28 03:15:57;;;;;;;5.25;1.63;;;21.70;99.90;;;;;;5031909;28;20224;-81
2023/09/28 03:18:28;;;;;;;4.88;1.50;;;21.60;99.90;;;;;;5038283;28;20717;-81
2023/09/28 03:20:58;;;;;;;3.83;1.40;;;21.70;99.90;;;;;;5040301;28;20197;-81
2023/09/28 03:23:30;;;;;;;6.63;1.52;;;21.70;99.90;;;;;;5031918;28;20197;-81
2023/09/28 03:26:01;;;;;;;4.75;1.50;;;21.80;99.90;;;;;;5033232;28;20226;-81
2023/09/28 03:28:33;;;;;;;3.42;1.45;;;21.70;99.90;;;;;;5033667;28;20584;-81
2023/09/28 03:31:04;;;;;;;4.43;1.58;;;21.70;99.90;;;;;;5032456;28;20576;-81
2023/09/28 03:33:33;;;;;;;3.22;1.40;;;21.70;99.90;;;;;;5031513;28;20201;-81
2023/09/28 03:36:04;;;;;;;2.90;1.30;;;21.80;99.90;;;;;;5027335;28;20193;-81
2023/09/28 03:38:37;;;;;;;5.88;1.65;;;21.90;99.90;;;;;;5029983;28;20217;-81
2023/09/28 03:41:08;;;;;;;3.45;1.30;;;21.90;99.90;;;;;;5025343;28;20216;-81
2023/09/28 03:43:42;;;;;;;4.20;1.60;;;21.90;99.90;;;;;;5028931;28;20190;-81
2023/09/28 03:46:13;;;;;;;7.90;1.65;;;22.00;99.90;;;;;;5032799;28;20204;-81
2023/09/28 03:48:45;;;;;;;4.32;1.50;;;22.10;99.90;;;;;;5023527;28;20205;-81
2023/09/28 03:51:17;;;;;;;3.83;1.58;;;22.30;99.90;;;;;;5012216;28;20205;-81
2023/09/28 03:53:50;;;;;;;3.03;1.20;;;22.30;99.90;;;;;;5021035;28;20540;-80
2023/09/28 03:56:21;;;;;;;3.90;1.42;;;22.50;99.90;;;;;;5018696;28;20576;-82
2023/09/28 03:58:52;;;;;;;3.80;1.45;;;22.40;99.90;;;;;;5020818;28;20213;-80
2023/09/28 04:01:22;;;;;;;5.65;1.60;;;22.40;99.90;;;;;;5023259;28;20208;-81
2023/09/28 04:03:53;;;;;;;3.78;1.73;;;22.50;99.90;;;;;;5031514;28;20201;-81
2023/09/28 04:06:24;;;;;;;2.78;1.38;;;22.40;99.90;;;;;;5029749;28;20201;-81
2023/09/28 04:08:57;;;;;;;4.57;1.30;;;22.40;99.90;;;;;;5020008;28;20688;-81
2023/09/28 04:11:28;;;;;;;4.65;1.80;;;22.60;99.90;;;;;;5031909;28;20281;-81
2023/09/28 04:14:01;;;;;;;3.25;1.50;;;22.60;99.90;;;;;;5032064;28;20229;-81
2023/09/28 04:16:31;;;;;;;4.18;1.50;;;22.80;99.90;;;;;;5030945;28;20692;-81
2023/09/28 04:19:02;;;;;;;5.28;1.50;;;23.00;99.90;;;;;;5020718;28;20217;-80
2023/09/28 04:21:33;;;;;;;4.60;1.38;;;22.90;99.90;;;;;;5030636;28;20200;-80
2023/09/28 04:24:06;;;;;;;3.95;1.33;;;22.80;99.90;;;;;;5031897;28;20205;-80
2023/09/28 04:26:37;;;;;;;4.47;1.45;;;23.10;99.90;;;;;;5025437;28;20194;-80
2023/09/28 04:29:07;;;;;;;4.28;1.50;;;23.30;99.90;;;;;;5029236;28;20247;-81
2023/09/28 04:31:40;;;;;;;3.63;1.33;;;23.40;99.90;;;;;;5031232;28;20197;-81
2023/09/28 04:34:12;;;;;;;5.22;1.63;;;23.50;99.90;;;;;;5032517;28;20201;-81
2023/09/28 04:36:45;;;;;;;6.20;1.45;;;23.30;99.90;;;;;;5030956;28;20198;-80
2023/09/28 04:39:18;;;;;;;5.82;1.38;;;23.20;99.90;;;;;;5029807;28;20213;-81
2023/09/28 04:41:50;;;;;;;5.18;1.55;;;23.10;99.90;;;;;;5027855;28;20658;-81
2023/09/28 04:44:20;;;;;;;3.10;1.23;;;23.10;99.90;;;;;;5032538;28;20675;-80
2023/09/28 04:46:51;;;;;;;3.42;1.33;;;23.10;99.90;;;;;;5024426;28;20217;-81
2023/09/28 04:49:22;;;;;;;5.20;1.60;;;23.20;99.90;;;;;;5025804;28;20198;-82
2023/09/28 04:51:53;;;;;;;2.70;1.48;;;23.30;99.90;;;;;;5029691;28;20275;-82
2023/09/28 04:54:26;;;;;;;4.85;1.52;;;23.50;99.90;;;;;;5030957;28;20202;-81
2023/09/28 04:56:56;;;;;;;3.50;1.33;;;23.50;99.90;;;;;;5018959;28;20205;-81
2023/09/28 04:59:27;;;;;;;5.82;1.50;;;23.50;99.90;;;;;;5016057;28;20608;-81
2023/09/28 05:01:58;;;;;;;5.78;1.50;;;23.60;99.90;;;;;;5028262;28;20204;-81
2023/09/28 05:04:28;;;;;;;5.32;1.50;;;23.70;99.90;;;;;;5019846;28;20196;-80
2023/09/28 05:07:00;;;;;;;4.28;1.48;;;23.60;99.90;;;;;;5029783;28;20661;-81
2023/09/28 05:09:32;;;;;;;5.95;1.50;;;23.60;99.90;;;;;;5030310;28;20613;-80
2023/09/28 05:12:03;;;;;;;3.38;1.20;;;23.60;99.90;;;;;;5030066;28;20204;-80
2023/09/28 05:14:34;;;;;;;5.28;1.40;;;23.50;99.90;;;;;;5030642;28;20208;-81
2023/09/28 05:17:05;;;;;;;3.33;1.45;;;23.50;99.90;;;;;;5033609;28;20221;-81
2023/09/28 05:19:35;;;;;;;5.18;1.55;;;23.60;99.90;;;;;;5050534;28;20255;-81
2023/09/28 05:22:07;;;;;;;5.72;1.27;;;23.70;99.90;;;;;;5037785;28;20201;-81
2023/09/28 05:24:41;;;;;;;4.07;1.52;;;23.80;99.90;;;;;;5030724;28;20197;-81
2023/09/28 05:27:13;;;;;;;4.00;1.70;;;24.00;99.90;;;;;;5030417;28;20290;-81
2023/09/28 05:29:43;;;;;;;3.08;1.40;;;24.00;99.90;;;;;;5030481;28;20197;-81
2023/09/28 05:32:14;;;;;;;5.50;1.73;;;24.10;99.90;;;;;;5030243;28;20202;-81
2023/09/28 05:34:45;;;;;;;4.13;1.48;;;24.10;99.90;;;;;;5040435;28;20207;-82
2023/09/28 05:37:16;;;;;;;3.53;1.40;;;24.30;99.90;;;;;;5054058;28;20192;-82
2023/09/28 05:39:48;;;;;;;3.67;1.27;;;24.20;99.90;;;;;;5037011;28;20228;-81
2023/09/28 05:42:19;;;;;;;3.35;1.40;;;24.30;99.90;;;;;;5013959;28;20209;-80
2023/09/28 05:44:50;;;;;;;4.18;1.58;;;24.40;99.90;;;;;;5018105;28;20194;-81
2023/09/28 05:47:20;;;;;;;2.63;1.17;;;24.50;99.90;;;;;;5032925;28;20201;-81
2023/09/28 05:49:52;;;;;;;3.58;1.27;;;24.50;99.90;;;;;;5033427;28;20256;-80
2023/09/28 05:52:23;;;;;;;3.53;1.33;;;24.50;99.90;;;;;;5047428;28;20205;-81
2023/09/28 05:54:55;;;;;;;5.45;1.50;;;24.40;99.90;;;;;;5039331;28;20223;-81
2023/09/28 05:57:26;;;;;;;5.32;1.48;;;24.70;99.90;;;;;;5032660;28;20196;-81
2023/09/28 05:59:57;;;;;;;3.33;1.50;;;24.80;99.90;;;;;;5032412;28;20221;-80
2023/09/28 06:02:27;;;;;;;4.78;1.52;;;25.00;99.90;;;;;;5033409;28;20203;-80
2023/09/28 06:04:58;;;;;;;7.30;1.83;;;25.20;99.90;;;;;;5032811;28;20667;-81
2023/09/28 06:07:29;;;;;;;5.20;1.35;;;25.40;99.90;;;;;;5033707;28;20197;-81
2023/09/28 06:10:02;;;;;;;5.93;1.40;;;25.40;99.90;;;;;;5048853;28;20201;-81
2023/09/28 06:12:32;;;;;;;3.22;1.48;;;25.50;99.90;;;;;;5013832;28;20233;-81
2023/09/28 06:15:04;;;;;;;3.92;1.33;;;25.70;99.90;;;;;;5024977;28;20303;-81
2023/09/28 06:17:34;;;;;;;5.25;1.60;;;25.90;99.90;;;;;;5032513;28;20201;-80
2023/09/28 06:20:07;;;;;;;6.30;1.60;;;26.20;99.90;;;;;;5033141;28;20229;-81
2023/09/28 06:22:38;;;;;;;5.32;1.50;;;26.20;99.90;;;;;;5033795;28;20194;-80
2023/09/28 06:25:12;;;;;;;5.68;1.50;;;26.20;99.90;;;;;;5028101;28;20672;-81
2023/09/28 06:27:42;;;;;;;4.07;1.63;;;26.20;99.90;;;;;;5034234;28;20197;-80
2023/09/28 06:30:13;;;;;;;4.50;1.55;;;26.30;99.90;;;;;;5035230;28;20207;-82
2023/09/28 06:32:44;;;;;;;4.07;1.27;;;26.40;99.90;;;;;;5033471;28;20201;-80
2023/09/28 06:35:15;;;;;;;3.58;1.65;;;26.50;99.90;;;;;;5021693;28;20194;-80
2023/09/28 06:37:46;;;;;;;6.20;1.50;;;26.70;99.90;;;;;;5023423;28;20186;-80
2023/09/28 06:40:19;;;;;;;4.60;1.50;;;26.90;99.90;;;;;;5013769;28;20222;-82
2023/09/28 06:42:49;;;;;;;3.10;1.58;;;27.00;99.90;;;;;;5034852;28;20228;-81
2023/09/28 06:45:20;;;;;;;3.55;1.42;;;27.10;99.90;;;;;;5024045;28;20194;-80
2023/09/28 06:47:53;;;;;;;5.25;1.50;;;27.10;99.90;;;;;;5013806;28;20252;-81
2023/09/28 06:50:25;;;;;;;5.57;1.40;;;27.00;99.90;;;;;;5023735;28;20194;-81
2023/09/28 06:52:54;;;;;;;5.60;1.58;;;26.60;99.90;;;;;;5033822;28;20201;-82
2023/09/28 06:55:27;;;;;;;4.45;1.40;;;26.40;99.90;;;;;;5033426;28;20239;-80
2023/09/28 06:57:59;;;;;;;2.72;1.33;;;26.40;99.90;;;;;;5033781;28;20209;-80
2023/09/28 07:00:29;;;;;;;3.72;1.42;;;26.00;99.90;;;;;;5047898;28;20237;-81
2023/09/28 07:03:00;;;;;;;3.33;1.42;;;25.90;99.90;;;;;;5022029;28;20198;-81
2023/09/28 07:05:33;;;;;;;3.78;1.13;;;25.50;99.90;;;;;;5032289;28;20220;-81
2023/09/28 07:08:05;;;;;;;3.50;1.33;;;25.10;99.90;;;;;;5020341;28;20281;-81
2023/09/28 07:10:38;;;;;;;3.30;1.17;;;24.60;99.90;;;;;;5030055;28;20648;-79
2023/09/28 07:13:10;;;;;;;3.97;1.60;;;24.30;99.90;;;;;;5032049;28;20232;-82
2023/09/28 07:15:42;;;;;;;4.38;1.30;;;24.00;99.90;;;;;;5032688;28;20198;-80
2023/09/28 07:18:12;;;;;;;2.88;1.52;;;23.90;99.90;;;;;;5014088;28;20244;-81
2023/09/28 07:20:43;;;;;;;4.90;1.42;;;23.60;99.90;;;;;;5024392;28;20222;-81
2023/09/28 07:23:14;;;;;;;2.20;1.35;;;23.40;99.90;;;;;;5023294;28;20272;-80
2023/09/28 07:25:49;;;;;;;4.43;1.35;;;23.20;99.90;;;;;;5030543;28;20197;-83
2023/09/28 07:28:21;;;;;;;4.22;1.45;;;23.10;99.90;;;;;;5012907;28;20202;-82
2023/09/28 07:30:52;;;;;;;2.47;1.40;;;22.80;99.90;;;;;;5015867;28;20194;-80
2023/09/28 07:33:23;;;;;;;4.53;1.48;;;22.60;99.90;;;;;;5025664;28;20200;-79
2023/09/28 07:35:53;;;;;;;3.05;1.40;;;22.40;99.90;;;;;;5031608;28;20201;-80
2023/09/28 07:38:24;;;;;;;4.90;1.60;;;22.20;99.90;;;;;;5011848;28;20194;-80
2023/09/28 07:40:57;;;;;;;5.70;1.80;;;22.10;99.90;;;;;;5021686;28;20220;-82
2023/09/28 07:43:28;;;;;;;3.50;1.25;;;22.00;99.90;;;;;;5015890;28;20216;-80
2023/09/28 07:45:59;;;;;;;4.57;1.55;;;21.80;99.90;;;;;;5031042;28;20680;-80
2023/09/28 07:48:29;;;;;;;3.15;1.50;;;21.70;99.90;;;;;;5030839;28;20668;-80
2023/09/28 07:51:00;;;;;;;4.10;1.77;;;21.70;99.90;;;;;;5022236;28;20209;-80
2023/09/28 07:53:31;;;;;;;6.18;1.92;;;21.60;99.90;;;;;;5030633;28;20243;-80
2023/09/28 07:56:04;;;;;;;2.92;1.50;;;21.40;99.90;;;;;;5030517;28;20201;-80
2023/09/28 07:58:34;;;;;;;5.88;1.70;;;21.40;99.90;;;;;;5023392;28;20201;-81
2023/09/28 08:01:05;;;;;;;3.33;1.60;;;21.40;99.90;;;;;;5031318;28;20220;-80
2023/09/28 08:03:37;;;;;;;3.05;1.40;;;21.20;99.90;;;;;;5031094;28;20247;-81
2023/09/28 08:06:09;;;;;;;1.92;1.35;;;21.10;99.90;;;;;;5030093;28;20728;-81
2023/09/28 08:08:39;;;;;;;5.00;1.63;;;21.00;99.90;;;;;;5032252;28;20232;-81
2023/09/28 08:11:12;;;;;;;6.97;1.98;;;21.00;99.90;;;;;;5047118;28;20280;-81
2023/09/28 08:13:43;;;;;;;4.82;1.80;;;20.90;99.90;;;;;;5050893;28;20240;-81
2023/09/28 08:16:14;;;;;;;6.03;1.77;;;20.80;99.90;;;;;;5011173;28;20669;-80
2023/09/28 08:18:46;;;;;;;3.92;1.50;;;20.70;99.90;;;;;;5011313;28;20755;-79
2023/09/28 08:21:17;;;;;;;3.65;1.70;;;20.70;99.90;;;;;;5028476;28;20236;-81
2023/09/28 08:23:48;;;;;;;3.53;1.55;;;20.70;99.90;;;;;;5029480;28;20660;-80
2023/09/28 08:26:21;;;;;;;4.35;1.58;;;20.60;99.90;;;;;;5029363;28;20197;-81
2023/09/28 08:28:52;;;;;;;5.47;1.55;;;20.60;99.90;;;;;;5024706;28;20190;-81
2023/09/28 08:31:24;;;;;;;4.32;1.63;;;20.50;99.90;;;;;;5036688;28;20277;-80
2023/09/28 08:33:54;;;;;;;4.35;1.70;;;20.50;99.90;;;;;;5030464;28;20217;-80
2023/09/28 08:36:25;;;;;;;5.63;1.63;;;20.40;99.90;;;;;;5029521;28;20197;-81
2023/09/28 08:38:56;;;;;;;5.28;1.67;;;20.40;99.90;;;;;;5030853;28;20197;-80
2023/09/28 08:41:35;;;;;;;5.63;1.60;;;20.30;99.90;;;;;;5036897;28;20228;-80
2023/09/28 08:44:08;;;;;;;4.45;1.60;;;20.40;99.90;;;;;;5050492;28;20543;-81
2023/09/28 08:46:39;;;;;;;5.05;1.95;;;20.30;99.90;;;;;;5031574;28;20194;-81
2023/09/28 08:49:14;;;;;;;3.53;1.50;;;20.30;99.90;;;;;;5033046;28;20197;-81
2023/09/28 08:51:46;;;;;;;6.78;1.80;;;20.30;99.90;;;;;;5030685;28;20205;-81
2023/09/28 08:54:18;;;;;;;4.72;1.70;;;20.20;99.90;;;;;;5029500;28;20692;-80
2023/09/28 08:56:52;;;;;;;5.28;1.65;;;20.20;99.90;;;;;;5011136;28;20200;-80
2023/09/28 08:59:28;;;;;;;4.13;1.60;;;20.20;99.90;;;;;;5026406;28;20648;-80
2023/09/28 09:02:00;;;;;;;5.68;1.80;;;20.20;99.90;;;;;;5018320;28;20543;-81
2023/09/28 09:04:30;;;;;;;4.32;1.52;;;20.20;99.90;;;;;;5010707;28;20201;-82
2023/09/28 09:07:03;;;;;;;6.45;2.03;;;20.20;99.90;;;;;;5011753;28;20289;-81
2023/09/28 09:09:35;;;;;;;4.05;1.90;;;20.10;99.90;;;;;;5025615;28;20568;-81
2023/09/28 09:12:11;;;;;;;6.47;1.80;;;20.00;99.90;;;;;;5022470;28;20223;-81
2023/09/28 09:14:42;;;;;;;4.82;1.67;;;20.00;99.90;;;;;;5033923;28;20197;-80
2023/09/28 09:17:13;;;;;;;2.50;1.75;;;20.00;99.90;;;;;;5033505;28;20202;-81
2023/09/28 09:19:45;;;;;;;4.65;1.70;;;19.90;99.90;;;;;;5034436;28;20197;-82
2023/09/28 09:22:28;;;;;;;6.35;1.80;;;19.90;99.90;;;;;;5026072;28;20197;-80
2023/09/28 09:24:59;;;;;;;5.57;1.90;;;19.90;99.90;;;;;;5015819;28;20285;-80
2023/09/28 09:27:32;;;;;;;3.22;1.80;;;19.90;99.90;;;;;;5034411;28;20572;-81
2023/09/28 09:30:08;;;;;;;6.13;2.20;;;19.90;99.90;;;;;;5031937;28;20687;-81
2023/09/28 09:32:42;;;;;;;5.18;1.85;;;19.80;99.90;;;;;;5032655;28;20604;-81
2023/09/28 09:35:14;;;;;;;2.70;1.50;;;19.80;99.90;;;;;;5033930;28;20229;-80
2023/09/28 09:37:53;;;;;;;3.35;1.48;;;19.70;99.90;;;;;;5021791;28;20194;-81
2023/09/28 09:40:25;;;;;;;6.63;1.95;;;19.70;99.90;;;;;;5028537;28;20708;-79
2023/09/28 09:43:07;;;;;;;4.30;1.88;;;19.70;99.90;;;;;;5014372;28;20229;-80
2023/09/28 09:45:40;;;;;;;5.22;2.00;;;19.70;99.90;;;;;;5014423;28;20220;-80
2023/09/28 09:48:12;;;;;;;4.50;1.65;;;19.60;99.90;;;;;;5032913;28;20209;-81
2023/09/28 09:50:44;;;;;;;5.20;2.20;;;19.70;99.90;;;;;;5033807;28;20197;-80
2023/09/28 09:53:16;;;;;;;7.13;2.10;;;19.60;99.90;;;;;;5033773;28;20201;-79
2023/09/28 09:55:48;;;;;;;6.85;2.10;;;19.60;99.90;;;;;;5032719;28;20193;-80
2023/09/28 09:58:23;;;;;;;4.47;2.05;;;19.70;99.90;;;;;;5030868;28;20219;-82
2023/09/28 10:00:57;;;;;;;4.40;1.90;;;19.60;99.90;;;;;;5033355;28;20221;-80
2023/09/28 10:03:29;;;;;;;6.15;2.33;;;19.60;99.90;;;;;;5028575;28;20194;-80
2023/09/28 10:06:03;;;;;;;4.85;2.28;;;19.50;99.90;;;;;;5022256;28;20197;-79
2023/09/28 10:08:35;;;;;;;5.05;2.25;;;19.50;99.90;;;;;;5033293;28;20186;-80
2023/09/28 10:11:07;;;;;;;5.28;1.90;;;19.60;99.90;;;;;;5033098;28;20197;-80
2023/09/28 10:13:41;;;;;;;4.32;2.03;;;19.60;99.90;;;;;;5021771;28;20228;-81
2023/09/28 10:16:14;;;;;;;4.07;2.10;;;19.60;99.90;;;;;;5027367;28;20209;-80
2023/09/28 10:18:47;;;;;;;3.67;1.83;;;19.50;99.90;;;;;;5025430;28;20201;-80
2023/09/28 10:21:18;;;;;;;5.07;1.95;;;19.50;99.90;;;;;;5022817;28;20222;-80
2023/09/28 10:23:49;;;;;;;5.30;1.90;;;19.50;99.90;;;;;;5033674;28;20202;-79
2023/09/28 10:26:21;;;;;;;6.45;2.00;;;19.50;99.90;;;;;;5033022;28;20201;-79
2023/09/28 10:29:12;;;;;;;5.85;1.92;;;19.40;99.90;;;;;;5033548;28;20211;-81
2023/09/28 10:31:44;;;;;;;6.10;1.90;;;19.40;99.90;;;;;;5023897;28;20649;-80
2023/09/28 10:34:21;;;;;;;4.78;2.05;;;19.40;99.90;;;;;;5025484;28;20243;-79
2023/09/28 10:37:21;;;;;;;5.60;2.40;;;19.30;99.90;;;;;;5033039;28;20197;-79
2023/09/28 10:39:57;;;;;;;3.75;2.20;;;19.30;99.90;;;;;;5026534;28;20202;-80
2023/09/28 10:42:30;;;;;;;5.43;2.08;;;19.30;99.90;;;;;;5021189;28;20713;-80
2023/09/28 10:45:03;;;;;;;6.63;2.22;;;19.20;99.90;;;;;;5029444;28;20197;-80
2023/09/28 10:47:34;;;;;;;7.65;2.05;;;19.20;99.90;;;;;;5025004;28;20303;-79
2023/09/28 10:50:08;;;;;;;5.32;2.17;;;19.20;99.90;;;;;;5031954;28;20638;-80
2023/09/28 10:52:39;;;;;;;4.00;1.65;;;19.20;99.90;;;;;;5027946;28;20193;-80
2023/09/28 10:55:10;;;;;;;6.03;2.10;;;19.20;99.90;;;;;;5032657;28;20201;-80
2023/09/28 10:57:43;;;;;;;5.25;2.30;;;19.10;99.90;;;;;;5034864;28;20229;-81
2023/09/28 11:00:16;;;;;;;3.55;1.80;;;19.10;99.90;;;;;;5032382;28;20216;-81
2023/09/28 11:02:48;;;;;;;4.90;2.20;;;19.10;99.90;;;;;;5020261;28;20662;-78
2023/09/28 11:05:21;;;;;;;5.32;1.88;;;19.10;99.90;;;;;;5026979;28;20208;-80
2023/09/28 11:07:53;;;;;;;5.95;2.10;;;19.10;99.90;;;;;;5022150;28;20614;-81
2023/09/28 11:10:27;;;;;;;3.97;2.00;;;19.10;99.90;;;;;;5026337;28;20224;-80
2023/09/28 11:12:58;;;;;;;4.30;1.70;;;19.00;99.90;;;;;;5031512;28;20225;-81
2023/09/28 11:15:31;;;;;;;5.47;2.30;;;19.00;99.90;;;;;;5042454;28;20213;-80
2023/09/28 11:18:02;;;;;;;6.03;2.22;;;19.10;99.90;;;;;;5030767;28;20281;-81
2023/09/28 11:20:33;;;;;;;4.88;2.08;;;19.00;99.90;;;;;;5032429;28;20232;-81
2023/09/28 11:23:04;;;;;;;4.90;1.70;;;19.10;99.90;;;;;;5031867;28;20577;-81
2023/09/28 11:25:35;;;;;;;3.92;2.10;;;19.00;99.90;;;;;;5031846;28;20729;-80
2023/09/28 11:28:06;;;;;;;3.00;1.70;;;19.10;99.90;;;;;;5018181;28;20210;-82
2023/09/28 11:30:39;;;;;;;4.30;1.58;;;19.00;99.90;;;;;;5028110;28;20554;-80
2023/09/28 11:33:10;;;;;;;4.93;2.03;;;19.00;99.90;;;;;;5019127;28;20204;-80
2023/09/28 11:35:43;;;;;;;5.38;1.80;;;19.00;99.90;;;;;;5024084;28;20194;-80
2023/09/28 11:38:13;;;;;;;3.60;1.60;;;19.00;99.90;;;;;;5032398;28;20205;-79
2023/09/28 11:40:44;;;;;;;3.67;1.73;;;19.00;99.90;;;;;;5032755;28;20300;-80
2023/09/28 11:43:15;;;;;;;3.53;1.50;;;19.00;99.90;;;;;;5017841;28;20209;-80
2023/09/28 11:45:49;;;;;;;2.63;1.60;;;19.00;99.90;;;;;;5039348;28;20240;-81
2023/09/28 11:48:21;;;;;;;4.10;1.90;;;18.90;99.90;;;;;;5036291;28;20197;-80
2023/09/28 11:50:52;;;;;;;5.38;1.98;;;18.90;99.90;;;;;;5033468;28;20201;-80
2023/09/28 11:53:23;;;;;;;2.85;1.77;;;18.90;99.90;;;;;;5032169;28;20201;-81
2023/09/28 11:55:54;;;;;;;3.17;1.80;;;18.90;99.90;;;;;;5031802;28;20209;-81
2023/09/28 11:58:27;;;;;;;2.95;1.70;;;18.90;99.90;;;;;;5032206;28;20193;-80
2023/09/28 12:01:03;;;;;;;3.15;1.60;;;18.80;99.90;;;;;;5031828;28;20228;-79
2023/09/28 12:03:38;;;;;;;3.40;2.08;;;18.80;99.90;;;;;;5043222;28;20657;-81
2023/09/28 12:06:08;;;;;;;3.60;1.88;;;18.90;99.90;;;;;;5050585;28;20200;-80
2023/09/28 12:08:40;;;;;;;5.45;1.90;;;18.90;99.90;;;;;;5056395;28;20192;-80
2023/09/28 12:11:11;;;;;;;5.25;2.08;;;18.80;99.90;;;;;;5056688;28;20193;-80
2023/09/28 12:13:42;;;;;;;3.47;1.90;;;18.80;99.90;;;;;;5056212;28;20267;-81
2023/09/28 12:16:15;;;;;;;3.90;1.60;;;18.80;99.90;;;;;;5056304;28;20228;-81
2023/09/28 12:18:46;;;;;;;2.92;1.77;;;18.80;99.90;;;;;;5046910;28;20192;-81
2023/09/28 12:21:17;;;;;;;3.03;1.75;;;18.80;99.90;;;;;;5036307;28;20312;-78
2023/09/28 12:23:51;;;;;;;2.95;1.65;;;18.80;99.90;;;;;;5041889;28;20193;-80
2023/09/28 12:26:23;;;;;;;4.72;1.90;;;18.80;99.90;;;;;;5027501;28;20197;-82
2023/09/28 12:28:55;;;;;;;4.05;1.75;;;18.70;99.90;;;;;;5016785;28;20209;-81
2023/09/28 12:31:28;;;;;;;2.80;1.70;;;18.70;99.90;;;;;;5017489;28;20212;-81
2023/09/28 12:33:58;;;;;;;5.18;1.90;;;18.70;99.90;;;;;;5016768;28;20207;-80
2023/09/28 12:36:31;;;;;;;2.50;1.77;;;18.70;99.90;;;;;;5030877;28;20197;-80
2023/09/28 12:39:01;;;;;;;3.22;1.80;;;18.70;99.90;;;;;;5030998;28;20196;-81
2023/09/28 12:41:32;;;;;;;4.95;1.90;;;18.70;99.90;;;;;;5030590;28;20216;-81
2023/09/28 12:44:04;;;;;;;3.17;1.80;;;18.60;99.90;;;;;;5034495;28;20279;-79
2023/09/28 12:46:36;;;;;;;3.38;1.80;;;18.60;99.90;;;;;;5037072;28;20243;-79
2023/09/28 12:49:07;;;;;;;4.30;2.00;;;18.60;99.90;;;;;;5030628;28;20197;-80
2023/09/28 12:51:38;;;;;;;5.03;2.30;;;18.60;99.90;;;;;;5021249;28;20197;-79
2023/09/28 12:54:09;;;;;;;2.88;1.90;;;18.60;99.90;;;;;;5037183;28;20197;-81
2023/09/28 12:56:40;;;;;;;6.05;2.08;;;18.50;99.90;;;;;;5038835;28;20259;-80
2023/09/28 12:59:15;;;;;;;4.80;1.98;;;18.50;99.90;;;;;;5040910;28;20193;-80
2023/09/28 13:01:48;;;;;;;3.25;1.88;;;18.50;99.90;;;;;;5039378;28;20307;-80
2023/09/28 13:04:19;;;;;;;3.67;1.83;;;18.50;99.90;;;;;;5040274;28;20251;-80
2023/09/28 13:06:49;;;;;;;4.65;1.80;;;18.50;99.90;;;;;;5042968;28;20203;-79
2023/09/28 13:09:21;;;;;;;3.92;1.90;;;18.50;99.90;;;;;;5039449;28;20197;-80
2023/09/28 13:11:52;;;;;;;3.53;1.90;;;18.50;99.90;;;;;;5037225;28;20204;-79